Time;durP1;ratioP1;P1;durP2;ratioP2;P2;SDS_P1;SDS_P2;PMS_P1;PMS_P2;Temp;Humidity;BMP_temperature;BMP_pressure;BME280_temperature;BME280_humidity;BME280_pressure;Samples;Min_cycle;Max_cycle;Signal;HPM_P1;HPM_P2
2022/10/17 00:01:42;;;;;;;0.20;0.20;;;10.60;99.90;;;;;;5026871;28;20230;-89
2022/10/17 00:04:08;;;;;;;0.20;0.20;;;10.80;99.90;;;;;;5034945;28;20674;-91
2022/10/17 00:06:33;;;;;;;0.20;0.20;;;10.70;99.90;;;;;;5030393;28;20568;-90
2022/10/17 00:08:59;;;;;;;0.20;0.20;;;10.50;99.90;;;;;;5017879;28;20266;-89
2022/10/17 00:11:24;;;;;;;0.20;0.20;;;10.40;99.90;;;;;;5016790;28;20640;-90
2022/10/17 00:13:52;;;;;;;0.20;0.20;;;10.40;99.90;;;;;;5035717;28;20192;-90
2022/10/17 00:16:35;;;;;;;0.20;0.20;;;10.40;99.90;;;;;;5014419;28;20215;-89
2022/10/17 00:19:01;;;;;;;0.20;0.20;;;10.30;99.90;;;;;;5024619;28;20442;-89
2022/10/17 00:21:26;;;;;;;0.20;0.20;;;10.20;99.90;;;;;;5031213;28;20450;-89
2022/10/17 00:23:52;;;;;;;0.20;0.20;;;10.30;99.90;;;;;;5025634;28;20192;-89
2022/10/17 00:26:19;;;;;;;0.20;0.20;;;10.20;99.90;;;;;;5028418;28;20219;-89
2022/10/17 00:28:46;;;;;;;0.20;0.20;;;10.30;99.90;;;;;;5034325;28;20457;-90
2022/10/17 00:31:12;;;;;;;0.20;0.20;;;10.40;99.90;;;;;;5031067;28;20456;-90
2022/10/17 00:33:38;;;;;;;0.20;0.20;;;10.30;99.90;;;;;;5028537;28;20447;-91
2022/10/17 00:36:28;;;;;;;0.20;0.20;;;10.40;99.90;;;;;;5032987;28;20191;-89
2022/10/17 00:38:56;;;;;;;0.20;0.20;;;10.50;99.90;;;;;;5015803;28;20227;-89
2022/10/17 00:41:25;;;;;;;0.20;0.20;;;10.50;99.90;;;;;;5027441;28;20438;-88
2022/10/17 00:43:58;;;;;;;0.20;0.20;;;10.40;99.90;;;;;;5017514;28;20453;-89
2022/10/17 00:46:30;;;;;;;0.20;0.20;;;10.40;99.90;;;;;;5020719;28;20471;-89
2022/10/17 00:48:59;;;;;;;0.10;0.10;;;10.30;99.90;;;;;;5024475;28;20451;-88
2022/10/17 00:51:46;;;;;;;0.20;0.20;;;10.30;99.90;;;;;;5030646;28;20941;-88
2022/10/17 00:54:14;;;;;;;0.20;0.20;;;10.40;99.90;;;;;;4997766;28;20419;-88
2022/10/17 00:56:40;;;;;;;0.20;0.20;;;10.60;99.90;;;;;;5014677;28;20950;-88
2022/10/17 00:59:11;;;;;;;0.20;0.20;;;10.70;99.90;;;;;;5033189;28;20457;-88
2022/10/17 01:01:38;;;;;;;0.20;0.20;;;10.50;99.90;;;;;;5026404;28;20528;-88
2022/10/17 01:04:04;;;;;;;0.20;0.20;;;10.60;99.90;;;;;;5032586;28;20437;-87
2022/10/17 01:06:29;;;;;;;0.20;0.20;;;10.50;99.90;;;;;;5033261;28;20984;-89
2022/10/17 01:08:55;;;;;;;0.20;0.20;;;10.60;99.90;;;;;;5030461;28;20183;-89
2022/10/17 01:11:34;;;;;;;0.20;0.20;;;10.80;99.90;;;;;;5032060;28;20198;-88
2022/10/17 01:14:02;;;;;;;0.20;0.20;;;10.60;99.90;;;;;;5024606;28;20229;-89
2022/10/17 01:16:51;;;;;;;0.20;0.20;;;10.60;99.90;;;;;;5028327;28;20800;-89
2022/10/17 01:19:37;;;;;;;0.20;0.20;;;10.60;99.90;;;;;;5021197;28;20447;-89
2022/10/17 01:22:13;;;;;;;0.20;0.20;;;10.60;99.90;;;;;;5024239;28;20473;-89
2022/10/17 01:24:59;;;;;;;0.20;0.20;;;10.60;99.90;;;;;;5030906;28;20442;-89
2022/10/17 01:27:55;;;;;;;0.20;0.20;;;10.50;99.90;;;;;;5028805;28;20442;-88
2022/10/17 01:30:42;;;;;;;0.20;0.20;;;10.40;99.90;;;;;;5030226;28;20543;-89
2022/10/17 01:33:13;;;;;;;0.20;0.20;;;10.40;99.90;;;;;;5015252;28;20465;-88
2022/10/17 01:35:50;;;;;;;0.20;0.20;;;10.50;99.90;;;;;;5019781;28;20450;-89
2022/10/17 01:38:29;;;;;;;0.20;0.20;;;10.60;99.90;;;;;;5031150;28;20968;-89
2022/10/17 01:41:01;;;;;;;0.20;0.20;;;10.70;99.90;;;;;;4997525;28;20537;-89
2022/10/17 01:43:50;;;;;;;0.20;0.20;;;11.00;99.90;;;;;;5017938;28;20485;-89
2022/10/17 01:46:40;;;;;;;0.20;0.20;;;11.00;99.90;;;;;;5015210;28;20856;-89
2022/10/17 01:49:09;;;;;;;0.20;0.20;;;11.20;99.90;;;;;;5025510;28;20532;-90
2022/10/17 01:51:47;;;;;;;0.20;0.20;;;11.10;99.90;;;;;;5032307;28;20457;-89
2022/10/17 01:54:18;;;;;;;0.20;0.20;;;11.20;99.90;;;;;;5031978;28;21179;-89
2022/10/17 01:56:46;;;;;;;0.20;0.20;;;11.20;99.90;;;;;;5024493;28;20492;-89
2022/10/17 01:59:22;;;;;;;0.20;0.20;;;11.20;99.90;;;;;;5014642;28;20427;-88
2022/10/17 02:01:51;;;;;;;0.20;0.20;;;11.20;99.90;;;;;;5011899;28;20544;-89
2022/10/17 02:04:17;;;;;;;0.20;0.20;;;11.10;99.90;;;;;;5028000;28;20500;-89
2022/10/17 02:06:42;;;;;;;0.20;0.20;;;11.20;99.90;;;;;;5022295;28;20454;-88
2022/10/17 02:09:19;;;;;;;0.20;0.20;;;11.20;99.90;;;;;;5016360;28;20442;-90
2022/10/17 02:11:56;;;;;;;0.20;0.20;;;11.30;99.90;;;;;;5031807;28;20179;-88
2022/10/17 02:14:39;;;;;;;0.20;0.20;;;11.30;99.90;;;;;;5017706;28;20446;-88
2022/10/17 02:17:28;;;;;;;0.10;0.10;;;11.30;99.90;;;;;;5007425;28;20462;-88
2022/10/17 02:20:13;;;;;;;0.20;0.20;;;11.40;99.90;;;;;;5008416;28;20637;-88
2022/10/17 02:22:46;;;;;;;0.20;0.20;;;11.40;99.90;;;;;;5014856;28;20494;-88
2022/10/17 02:25:15;;;;;;;0.20;0.20;;;11.40;99.90;;;;;;5012709;28;20438;-89
2022/10/17 02:27:51;;;;;;;0.20;0.20;;;11.40;99.90;;;;;;5027441;28;20454;-87
2022/10/17 02:30:32;;;;;;;0.20;0.20;;;11.50;99.90;;;;;;5028237;28;20446;-89
2022/10/17 02:33:04;;;;;;;0.20;0.20;;;11.50;99.90;;;;;;5022564;28;20525;-89
2022/10/17 02:35:33;;;;;;;0.20;0.20;;;11.50;99.90;;;;;;5029278;28;20457;-88
2022/10/17 02:38:02;;;;;;;0.20;0.20;;;11.50;99.90;;;;;;5030659;28;20451;-88
2022/10/17 02:40:30;;;;;;;0.20;0.20;;;11.50;99.90;;;;;;5028026;28;20536;-89
2022/10/17 02:42:58;;;;;;;0.20;0.20;;;11.50;99.90;;;;;;5031292;28;20470;-89
2022/10/17 02:45:25;;;;;;;0.20;0.20;;;11.50;99.90;;;;;;5017378;28;20492;-88
2022/10/17 02:48:01;;;;;;;0.20;0.20;;;11.50;99.90;;;;;;5022401;28;20459;-89
2022/10/17 02:50:37;;;;;;;0.20;0.20;;;11.60;99.90;;;;;;5011983;28;20462;-88
2022/10/17 02:53:12;;;;;;;0.20;0.20;;;11.50;99.90;;;;;;5002338;28;20454;-89
2022/10/17 02:55:51;;;;;;;0.20;0.20;;;11.60;99.90;;;;;;5012070;28;20438;-89
2022/10/17 02:58:24;;;;;;;0.20;0.20;;;11.60;99.90;;;;;;5007719;28;20542;-90
2022/10/17 03:00:51;;;;;;;0.20;0.20;;;11.50;99.90;;;;;;5018582;28;20450;-90
2022/10/17 03:03:25;;;;;;;0.20;0.20;;;11.60;99.90;;;;;;5020645;28;20521;-89
2022/10/17 03:05:52;;;;;;;0.20;0.20;;;11.60;99.90;;;;;;5013142;28;20948;-90
2022/10/17 03:08:18;;;;;;;0.20;0.20;;;11.60;99.90;;;;;;5014629;28;20449;-89
2022/10/17 03:10:43;;;;;;;0.10;0.10;;;11.60;99.90;;;;;;5022626;28;20446;-89
2022/10/17 03:13:09;;;;;;;0.20;0.20;;;11.60;99.90;;;;;;5028596;28;20937;-90
2022/10/17 03:15:35;;;;;;;0.20;0.20;;;11.60;99.90;;;;;;5029822;28;20188;-90
2022/10/17 03:18:00;;;;;;;0.20;0.20;;;11.60;99.90;;;;;;5007553;28;20184;-90
2022/10/17 03:20:26;;;;;;;0.20;0.20;;;11.70;99.90;;;;;;5011001;28;20643;-89
2022/10/17 03:22:51;;;;;;;0.20;0.20;;;11.70;99.90;;;;;;5031178;28;20573;-89
2022/10/17 03:25:17;;;;;;;0.20;0.20;;;11.70;99.90;;;;;;5029765;28;20195;-90
2022/10/17 03:27:42;;;;;;;0.20;0.20;;;11.70;99.90;;;;;;5031361;28;20188;-90
2022/10/17 03:30:08;;;;;;;0.20;0.20;;;11.50;99.90;;;;;;5030490;28;20195;-89
2022/10/17 03:32:34;;;;;;;0.20;0.20;;;11.50;99.90;;;;;;5021752;28;20242;-89
2022/10/17 03:35:00;;;;;;;0.20;0.20;;;11.40;99.90;;;;;;5030913;28;20963;-90
2022/10/17 03:37:25;;;;;;;0.20;0.20;;;11.40;99.90;;;;;;5030393;28;20202;-88
2022/10/17 03:39:51;;;;;;;0.20;0.20;;;11.40;99.90;;;;;;5031127;28;20195;-89
2022/10/17 03:42:16;;;;;;;0.20;0.20;;;11.40;99.90;;;;;;5022035;28;20235;-89
2022/10/17 03:44:42;;;;;;;0.17;0.17;;;11.40;99.90;;;;;;5024455;28;20287;-89
2022/10/17 03:47:07;;;;;;;0.20;0.20;;;11.50;99.90;;;;;;5027215;28;20985;-89
2022/10/17 03:49:33;;;;;;;0.20;0.20;;;11.50;99.90;;;;;;5026892;28;20195;-88
2022/10/17 03:51:58;;;;;;;0.20;0.20;;;11.70;99.90;;;;;;5029288;28;20188;-89
2022/10/17 03:54:24;;;;;;;0.20;0.20;;;11.70;99.90;;;;;;5031147;28;20198;-88
2022/10/17 03:56:49;;;;;;;0.20;0.20;;;11.80;99.90;;;;;;5030201;28;20209;-89
2022/10/17 03:59:15;;;;;;;0.20;0.20;;;11.80;99.90;;;;;;5029017;28;20273;-90
2022/10/17 04:01:41;;;;;;;0.20;0.20;;;11.90;99.90;;;;;;5028229;28;20215;-90
2022/10/17 04:04:07;;;;;;;0.20;0.20;;;11.90;99.90;;;;;;5028097;28;20536;-88
2022/10/17 04:06:32;;;;;;;0.20;0.20;;;12.00;99.90;;;;;;5011716;28;20448;-89
2022/10/17 04:08:58;;;;;;;0.20;0.20;;;12.10;99.90;;;;;;5019940;28;20605;-88
2022/10/17 04:11:24;;;;;;;0.10;0.10;;;12.10;99.90;;;;;;5031854;28;20651;-89
2022/10/17 04:13:54;;;;;;;0.20;0.20;;;12.10;99.90;;;;;;5029054;28;20817;-88
2022/10/17 04:16:21;;;;;;;0.20;0.20;;;12.10;99.90;;;;;;5032708;28;20241;-89
2022/10/17 04:18:46;;;;;;;0.20;0.20;;;12.10;99.90;;;;;;5028578;28;20992;-89
2022/10/17 04:21:12;;;;;;;0.20;0.20;;;12.10;99.90;;;;;;5013258;28;20521;-90
2022/10/17 04:23:38;;;;;;;0.20;0.20;;;12.10;99.90;;;;;;5033181;28;20281;-89
2022/10/17 04:26:05;;;;;;;0.17;0.17;;;12.10;99.90;;;;;;5032593;28;20438;-89
2022/10/17 04:28:31;;;;;;;0.20;0.20;;;12.10;99.90;;;;;;5029885;28;20242;-89
2022/10/17 04:31:05;;;;;;;0.20;0.20;;;12.10;99.90;;;;;;5025409;28;21009;-90
2022/10/17 04:33:31;;;;;;;0.20;0.20;;;12.10;99.90;;;;;;5009108;28;20965;-89
2022/10/17 04:36:05;;;;;;;0.10;0.10;;;12.10;99.90;;;;;;5026674;28;20446;-89
2022/10/17 04:38:31;;;;;;;0.10;0.10;;;12.10;99.90;;;;;;5013699;28;20454;-89
2022/10/17 04:41:01;;;;;;;0.20;0.20;;;12.10;99.90;;;;;;5035400;28;20457;-89
2022/10/17 04:43:26;;;;;;;0.20;0.20;;;12.20;99.90;;;;;;5019259;28;20226;-89
2022/10/17 04:45:52;;;;;;;0.20;0.20;;;12.20;99.90;;;;;;5026969;28;20484;-90
2022/10/17 04:48:17;;;;;;;0.10;0.10;;;12.20;99.90;;;;;;5015677;28;20221;-90
2022/10/17 04:50:53;;;;;;;0.20;0.20;;;12.20;99.90;;;;;;5032500;28;20192;-89
2022/10/17 04:53:18;;;;;;;0.10;0.10;;;12.20;99.90;;;;;;5014616;28;20164;-89
2022/10/17 04:55:44;;;;;;;0.20;0.20;;;12.20;99.90;;;;;;5014772;28;20529;-89
2022/10/17 04:58:09;;;;;;;0.20;0.20;;;12.30;99.90;;;;;;5032348;28;20187;-89
2022/10/17 05:00:35;;;;;;;0.20;0.20;;;12.30;99.90;;;;;;5028631;28;20707;-89
2022/10/17 05:03:00;;;;;;;0.10;0.10;;;12.30;99.90;;;;;;5016787;28;20227;-88
2022/10/17 05:05:26;;;;;;;0.20;0.20;;;12.30;99.90;;;;;;5026225;28;20183;-89
2022/10/17 05:07:52;;;;;;;0.20;0.20;;;12.30;99.90;;;;;;5030704;28;20211;-90
2022/10/17 05:10:18;;;;;;;0.10;0.10;;;12.30;99.90;;;;;;5026032;28;20469;-88
2022/10/17 05:12:45;;;;;;;0.20;0.20;;;12.40;99.90;;;;;;5028968;28;20569;-88
2022/10/17 05:15:10;;;;;;;0.20;0.20;;;12.30;99.90;;;;;;5026299;28;20640;-88
2022/10/17 05:17:36;;;;;;;0.10;0.10;;;12.30;99.90;;;;;;5009950;28;20465;-87
2022/10/17 05:20:01;;;;;;;0.10;0.10;;;12.30;99.90;;;;;;5019525;28;20195;-90
2022/10/17 05:22:27;;;;;;;0.20;0.20;;;12.30;99.90;;;;;;5017659;28;20591;-88
2022/10/17 05:24:52;;;;;;;0.20;0.20;;;12.20;99.90;;;;;;5030639;28;20184;-87
2022/10/17 05:27:18;;;;;;;0.17;0.17;;;12.20;99.90;;;;;;5011446;28;20191;-88
2022/10/17 05:29:44;;;;;;;0.10;0.10;;;12.20;99.90;;;;;;5008459;28;20210;-88
2022/10/17 05:32:10;;;;;;;0.20;0.20;;;12.20;99.90;;;;;;5021554;28;20546;-88
2022/10/17 05:34:35;;;;;;;0.20;0.20;;;12.20;99.90;;;;;;5026517;28;20445;-90
2022/10/17 05:37:00;;;;;;;0.20;0.20;;;12.20;99.90;;;;;;5031707;28;20206;-87
2022/10/17 05:39:26;;;;;;;0.20;0.20;;;12.20;99.90;;;;;;5029469;28;20729;-88
2022/10/17 05:41:51;;;;;;;0.20;0.20;;;12.20;99.90;;;;;;5031802;28;20230;-88
2022/10/17 05:44:17;;;;;;;0.20;0.20;;;12.20;99.90;;;;;;5029227;28;20195;-87
2022/10/17 05:46:43;;;;;;;0.10;0.10;;;12.20;99.90;;;;;;5024324;28;20231;-87
2022/10/17 05:49:09;;;;;;;0.20;0.20;;;12.20;99.90;;;;;;5016532;28;20443;-89
2022/10/17 05:51:35;;;;;;;0.20;0.20;;;12.20;99.90;;;;;;5023334;28;20190;-87
2022/10/17 05:54:01;;;;;;;0.10;0.10;;;12.20;99.90;;;;;;5028440;28;20446;-88
2022/10/17 05:56:26;;;;;;;0.20;0.20;;;12.20;99.90;;;;;;5031445;28;20187;-88
2022/10/17 05:58:52;;;;;;;0.20;0.20;;;12.20;99.90;;;;;;5027848;28;20191;-88
2022/10/17 06:01:18;;;;;;;0.20;0.20;;;12.20;99.90;;;;;;5019278;28;20191;-89
2022/10/17 06:03:43;;;;;;;0.10;0.10;;;12.20;99.90;;;;;;5014926;28;20220;-88
2022/10/17 06:06:11;;;;;;;0.20;0.20;;;12.20;99.90;;;;;;5010177;28;20458;-88
2022/10/17 06:08:37;;;;;;;0.10;0.10;;;12.30;99.90;;;;;;5034495;28;20195;-88
2022/10/17 06:11:02;;;;;;;0.20;0.20;;;12.30;99.90;;;;;;5027466;28;20470;-88
2022/10/17 06:13:29;;;;;;;0.20;0.20;;;12.30;99.90;;;;;;5028869;28;20656;-89
2022/10/17 06:15:54;;;;;;;0.20;0.20;;;12.30;99.90;;;;;;5031356;28;20261;-89
2022/10/17 06:18:20;;;;;;;0.20;0.20;;;12.30;99.90;;;;;;5029453;28;20925;-90
2022/10/17 06:20:47;;;;;;;0.20;0.20;;;12.30;99.90;;;;;;5028879;28;20195;-89
2022/10/17 06:23:13;;;;;;;0.20;0.20;;;12.30;99.90;;;;;;5023441;28;20215;-89
2022/10/17 06:25:38;;;;;;;0.10;0.10;;;12.40;99.90;;;;;;5026697;28;20443;-90
2022/10/17 06:28:04;;;;;;;0.20;0.20;;;12.30;99.90;;;;;;5009741;28;20438;-90
2022/10/17 06:30:29;;;;;;;0.20;0.20;;;12.40;99.90;;;;;;5019954;28;20635;-87
2022/10/17 06:32:55;;;;;;;0.20;0.20;;;12.40;99.90;;;;;;5020511;28;20557;-87
2022/10/17 06:35:22;;;;;;;0.20;0.20;;;12.40;99.90;;;;;;5004527;28;20692;-87
2022/10/17 06:37:47;;;;;;;0.17;0.17;;;12.50;99.90;;;;;;5007644;28;20207;-86
2022/10/17 06:40:15;;;;;;;0.20;0.20;;;12.50;99.90;;;;;;5025319;28;20446;-87
2022/10/17 06:42:41;;;;;;;0.20;0.20;;;12.60;99.90;;;;;;5011629;28;20221;-90
2022/10/17 06:45:07;;;;;;;0.20;0.20;;;12.60;99.90;;;;;;5026503;28;20478;-88
2022/10/17 06:47:34;;;;;;;0.20;0.20;;;12.70;99.90;;;;;;5029741;28;20202;-90
2022/10/17 06:49:59;;;;;;;0.20;0.20;;;12.70;99.90;;;;;;5004442;28;20446;-87
2022/10/17 06:52:25;;;;;;;0.20;0.20;;;12.80;99.90;;;;;;5024050;28;20463;-88
2022/10/17 06:54:53;;;;;;;0.17;0.17;;;12.80;99.90;;;;;;5023995;28;20192;-87
2022/10/17 06:57:18;;;;;;;0.10;0.10;;;12.80;99.90;;;;;;5022807;28;20187;-87
2022/10/17 06:59:44;;;;;;;0.10;0.10;;;12.90;99.90;;;;;;5026821;28;20445;-88
2022/10/17 07:02:10;;;;;;;0.10;0.10;;;12.90;99.90;;;;;;5006782;28;20310;-86
2022/10/17 07:04:36;;;;;;;0.10;0.10;;;12.90;99.90;;;;;;5015719;28;20191;-87
2022/10/17 07:07:02;;;;;;;0.13;0.13;;;12.90;99.90;;;;;;5023062;28;20492;-87
2022/10/17 07:09:29;;;;;;;0.10;0.10;;;13.00;99.90;;;;;;5026823;28;20221;-85
2022/10/17 07:11:54;;;;;;;0.10;0.10;;;13.10;99.90;;;;;;5014423;28;20514;-85
2022/10/17 07:14:20;;;;;;;0.10;0.10;;;13.20;99.90;;;;;;5021555;28;20516;-86
2022/10/17 07:16:45;;;;;;;0.17;0.17;;;13.20;99.90;;;;;;5025213;28;20191;-88
2022/10/17 07:19:11;;;;;;;0.20;0.20;;;13.30;99.90;;;;;;5011542;28;20253;-86
2022/10/17 07:21:36;;;;;;;0.10;0.10;;;13.30;99.90;;;;;;5022703;28;20195;-86
2022/10/17 07:24:02;;;;;;;0.20;0.20;;;13.40;99.90;;;;;;5028067;28;20368;-88
2022/10/17 07:26:28;;;;;;;0.10;0.10;;;13.40;99.90;;;;;;5028360;28;20596;-85
2022/10/17 07:28:54;;;;;;;0.20;0.20;;;13.60;99.90;;;;;;5028151;28;20199;-85
2022/10/17 07:31:21;;;;;;;0.10;0.10;;;13.70;99.90;;;;;;5022096;28;20184;-86
2022/10/17 07:33:48;;;;;;;0.10;0.10;;;13.70;99.90;;;;;;5026669;28;20442;-88
2022/10/17 07:36:14;;;;;;;0.10;0.10;;;13.80;99.90;;;;;;5022554;28;20596;-89
2022/10/17 07:38:42;;;;;;;0.10;0.10;;;13.90;99.90;;;;;;5027787;28;20445;-87
2022/10/17 07:41:09;;;;;;;0.10;0.10;;;13.90;99.90;;;;;;5030355;28;20918;-85
2022/10/17 07:43:35;;;;;;;0.10;0.10;;;13.90;99.90;;;;;;5032475;28;20965;-90
2022/10/17 07:46:02;;;;;;;0.10;0.10;;;14.10;99.90;;;;;;5029362;28;20474;-85
2022/10/17 07:48:29;;;;;;;0.10;0.10;;;14.20;99.90;;;;;;5034682;28;20441;-82
2022/10/17 07:50:54;;;;;;;0.10;0.10;;;14.30;99.90;;;;;;5031591;28;20921;-81
2022/10/17 07:53:20;;;;;;;0.10;0.10;;;14.40;99.90;;;;;;5034241;28;20516;-82
2022/10/17 07:55:47;;;;;;;0.10;0.10;;;14.40;99.90;;;;;;5033258;28;20253;-82
2022/10/17 07:58:13;;;;;;;0.10;0.10;;;14.50;99.90;;;;;;5028088;28;20678;-83
2022/10/17 08:00:39;;;;;;;0.10;0.10;;;14.60;99.90;;;;;;5014219;28;20568;-81
2022/10/17 08:03:05;;;;;;;0.10;0.10;;;14.90;99.90;;;;;;5020166;28;20489;-81
2022/10/17 08:05:32;;;;;;;0.10;0.10;;;14.80;99.90;;;;;;5013290;28;20239;-82
2022/10/17 08:08:00;;;;;;;0.10;0.10;;;15.00;99.90;;;;;;5020365;28;20426;-82
2022/10/17 08:10:29;;;;;;;0.10;0.10;;;15.10;99.90;;;;;;5034049;28;21211;-81
2022/10/17 08:12:56;;;;;;;0.10;0.10;;;15.10;99.90;;;;;;5022672;28;20446;-81
2022/10/17 08:15:22;;;;;;;0.10;0.10;;;15.20;99.90;;;;;;5011497;28;20454;-95
2022/10/17 08:17:48;;;;;;;0.10;0.10;;;15.10;99.90;;;;;;5005213;28;20564;-84
2022/10/17 08:20:13;;;;;;;0.10;0.10;;;15.10;99.90;;;;;;5029001;28;20834;-88
2022/10/17 08:22:39;;;;;;;0.10;0.10;;;14.90;99.90;;;;;;5031642;28;20223;-86
2022/10/17 08:25:05;;;;;;;0.10;0.10;;;14.80;99.90;;;;;;5019446;28;20188;-81
2022/10/17 08:27:32;;;;;;;0.10;0.10;;;14.80;99.90;;;;;;5004178;28;20215;-82
2022/10/17 08:29:58;;;;;;;0.10;0.10;;;14.80;99.90;;;;;;5030408;28;20532;-81
2022/10/17 08:32:25;;;;;;;0.10;0.10;;;14.80;99.90;;;;;;5015381;28;20959;-82
2022/10/17 08:34:52;;;;;;;0.10;0.10;;;14.80;99.90;;;;;;5026381;28;20253;-81
2022/10/17 08:37:18;;;;;;;0.10;0.10;;;14.90;99.90;;;;;;5030003;28;20442;-88
2022/10/17 08:39:43;;;;;;;0.10;0.10;;;14.90;99.90;;;;;;5030117;28;21419;-87
2022/10/17 08:42:29;;;;;;;0.10;0.10;;;14.90;99.90;;;;;;5028435;28;20299;-87
2022/10/17 08:45:00;;;;;;;0.10;0.10;;;14.90;99.90;;;;;;5010031;28;20199;-90
2022/10/17 08:47:36;;;;;;;0.10;0.10;;;15.00;99.90;;;;;;5019604;28;20455;-89
2022/10/17 08:50:05;;;;;;;0.10;0.10;;;15.00;99.90;;;;;;5025878;28;20785;-87
2022/10/17 08:52:51;;;;;;;0.10;0.10;;;15.00;99.90;;;;;;5028917;28;20446;-90
2022/10/17 08:55:40;;;;;;;0.10;0.10;;;14.90;99.90;;;;;;5021045;28;20450;-86
2022/10/17 08:58:17;;;;;;;0.10;0.10;;;14.90;99.90;;;;;;5023504;28;20431;-87
2022/10/17 09:01:05;;;;;;;0.10;0.10;;;14.90;99.90;;;;;;5025125;28;20584;-88
2022/10/17 09:04:04;;;;;;;0.10;0.10;;;14.80;99.90;;;;;;5030828;28;20568;-87
2022/10/17 09:07:07;;;;;;;0.10;0.10;;;14.80;99.90;;;;;;5021964;28;20871;-87
2022/10/17 09:09:37;;;;;;;0.10;0.10;;;14.80;99.90;;;;;;5011245;28;21090;-86
2022/10/17 09:12:33;;;;;;;0.10;0.10;;;14.80;99.90;;;;;;5027648;28;20807;-89
2022/10/17 09:15:28;;;;;;;0.10;0.10;;;14.80;99.90;;;;;;5027384;28;20539;-85
2022/10/17 09:17:59;;;;;;;0.10;0.10;;;14.90;99.90;;;;;;5002236;28;20844;-86
2022/10/17 09:20:35;;;;;;;0.10;0.10;;;15.00;99.90;;;;;;5019376;28;20431;-86
2022/10/17 09:23:07;;;;;;;0.10;0.10;;;15.10;99.90;;;;;;5023230;28;20485;-85
2022/10/17 09:25:41;;;;;;;0.10;0.10;;;15.20;99.90;;;;;;5026733;28;20446;-87
2022/10/17 09:28:23;;;;;;;0.10;0.10;;;15.40;99.90;;;;;;5010848;28;21037;-88
2022/10/17 09:30:59;;;;;;;0.10;0.10;;;15.80;99.90;;;;;;5028764;28;20438;-88
2022/10/17 09:33:34;;;;;;;0.10;0.10;;;16.20;99.90;;;;;;5012740;28;20442;-89
2022/10/17 09:36:03;;;;;;;0.10;0.10;;;16.40;99.90;;;;;;5028915;28;20496;-88
2022/10/17 09:38:40;;;;;;;0.10;0.10;;;16.80;99.90;;;;;;5024184;28;20469;-86
2022/10/17 09:41:21;;;;;;;0.10;0.10;;;17.10;99.90;;;;;;5027542;28;20457;-88
2022/10/17 09:43:51;;;;;;;0.10;0.10;;;17.30;99.90;;;;;;5027342;28;20489;-90
2022/10/17 09:46:25;;;;;;;0.10;0.10;;;17.40;99.90;;;;;;5019110;28;20477;-89
2022/10/17 09:48:59;;;;;;;0.10;0.10;;;17.60;99.90;;;;;;5028805;28;20464;-89
2022/10/17 09:51:25;;;;;;;0.10;0.10;;;18.00;99.90;;;;;;5011600;28;20805;-88
2022/10/17 09:53:55;;;;;;;0.10;0.10;;;18.10;99.90;;;;;;5028636;28;20454;-90
2022/10/17 09:56:21;;;;;;;0.10;0.10;;;18.30;99.90;;;;;;5030693;28;20187;-89
2022/10/17 09:58:49;;;;;;;0.10;0.10;;;18.70;99.90;;;;;;5024832;28;20446;-91
2022/10/17 10:01:27;;;;;;;0.10;0.10;;;18.50;99.90;;;;;;5008419;28;20651;-90
2022/10/17 10:04:14;;;;;;;0.10;0.10;;;18.30;99.90;;;;;;5004684;28;20655;-91
2022/10/17 10:06:59;;;;;;;0.10;0.10;;;18.30;99.90;;;;;;5005935;28;20450;-89
2022/10/17 10:09:29;;;;;;;0.10;0.10;;;18.30;99.90;;;;;;5025971;28;20527;-90
2022/10/17 10:11:56;;;;;;;0.10;0.10;;;18.10;99.90;;;;;;5024423;28;20473;-90
2022/10/17 10:14:23;;;;;;;0.10;0.10;;;18.10;99.90;;;;;;5027577;28;20454;-90
2022/10/17 10:16:52;;;;;;;0.10;0.10;;;18.30;99.90;;;;;;5009434;28;20969;-91
2022/10/17 10:19:31;;;;;;;0.10;0.10;;;18.80;99.90;;;;;;5016763;28;20449;-88
2022/10/17 10:22:01;;;;;;;0.10;0.10;;;19.00;99.90;;;;;;5026132;28;20465;-87
2022/10/17 10:24:27;;;;;;;0.10;0.10;;;19.20;99.90;;;;;;5028839;28;20525;-89
2022/10/17 10:26:57;;;;;;;0.10;0.10;;;19.40;99.90;;;;;;5017538;28;21133;-90
2022/10/17 10:29:33;;;;;;;0.10;0.10;;;19.40;99.90;;;;;;5026395;28;20485;-87
2022/10/17 10:32:26;;;;;;;0.10;0.10;;;19.30;99.90;;;;;;5024370;28;20848;-89
2022/10/17 10:35:19;;;;;;;0.10;0.10;;;19.50;99.90;;;;;;5020445;28;20453;-88
2022/10/17 10:37:54;;;;;;;0.10;0.10;;;19.50;99.90;;;;;;5007846;28;20451;-88
2022/10/17 10:40:30;;;;;;;0.10;0.10;;;19.50;99.90;;;;;;5015276;28;21233;-89
2022/10/17 10:42:57;;;;;;;0.10;0.10;;;19.30;99.90;;;;;;5017081;28;20497;-88
2022/10/17 10:45:39;;;;;;;0.10;0.10;;;19.00;99.90;;;;;;5006034;28;20965;-88
2022/10/17 10:48:24;;;;;;;0.10;0.10;;;19.20;99.90;;;;;;5030601;28;20434;-89
2022/10/17 10:50:54;;;;;;;0.10;0.00;;;19.30;99.90;;;;;;5029111;28;20532;-90
2022/10/17 10:53:52;;;;;;;0.10;0.10;;;19.70;99.90;;;;;;5012892;28;20876;-88
2022/10/17 10:56:33;;;;;;;0.10;0.10;;;19.80;99.90;;;;;;5024713;28;21076;-88
2022/10/17 10:59:11;;;;;;;0.10;0.00;;;20.00;99.90;;;;;;5023763;28;20953;-90
2022/10/17 11:01:54;;;;;;;0.10;0.00;;;20.30;99.90;;;;;;5023822;28;20442;-88
2022/10/17 11:04:46;;;;;;;0.10;0.10;;;20.40;99.90;;;;;;5026362;28;20442;-89
2022/10/17 11:07:30;;;;;;;0.10;0.00;;;20.30;99.90;;;;;;5010354;28;20449;-89
2022/10/17 11:10:20;;;;;;;0.10;0.00;;;20.00;99.90;;;;;;5025173;28;20450;-87
2022/10/17 11:13:04;;;;;;;0.10;0.10;;;19.60;99.90;;;;;;5025834;28;20997;-87
2022/10/17 11:15:41;;;;;;;0.10;0.10;;;19.30;99.90;;;;;;5030879;28;20483;-90
2022/10/17 11:18:24;;;;;;;0.10;0.10;;;19.30;99.90;;;;;;5012135;28;20998;-89
2022/10/17 11:21:34;;;;;;;0.10;0.10;;;19.00;99.90;;;;;;5012931;28;20446;-90
2022/10/17 11:24:36;;;;;;;0.10;0.10;;;18.90;99.90;;;;;;5008452;28;20469;-91
2022/10/17 11:27:04;;;;;;;0.10;0.10;;;18.70;99.90;;;;;;4960179;28;20495;-88
2022/10/17 11:29:33;;;;;;;0.10;0.10;;;18.80;99.90;;;;;;5012541;28;20484;-89
2022/10/17 11:32:03;;;;;;;0.10;0.00;;;18.70;99.90;;;;;;5012919;28;20418;-90
2022/10/17 11:34:34;;;;;;;0.10;0.10;;;18.60;99.90;;;;;;5011389;28;20492;-91
2022/10/17 11:37:06;;;;;;;0.10;0.10;;;18.70;99.90;;;;;;5010506;28;20533;-87
2022/10/17 11:39:48;;;;;;;0.10;0.10;;;18.80;99.90;;;;;;5026322;28;20886;-89
2022/10/17 11:42:19;;;;;;;0.10;0.10;;;18.90;99.90;;;;;;5021516;28;20494;-88
2022/10/17 11:44:48;;;;;;;0.10;0.10;;;18.90;99.90;;;;;;5000682;28;20437;-86
2022/10/17 11:47:33;;;;;;;0.10;0.10;;;18.80;99.90;;;;;;5005912;28;20482;-86
2022/10/17 11:50:28;;;;;;;0.10;0.10;;;18.70;99.90;;;;;;5021411;28;20530;-88
2022/10/17 11:53:15;;;;;;;0.10;0.10;;;18.70;99.90;;;;;;5026681;28;20798;-88
2022/10/17 11:55:42;;;;;;;0.10;0.10;;;18.70;99.90;;;;;;5019945;28;20555;-89
2022/10/17 11:58:29;;;;;;;0.10;0.10;;;18.60;99.90;;;;;;5010514;28;20987;-90
2022/10/17 12:01:19;;;;;;;0.10;0.10;;;18.60;99.90;;;;;;5025585;28;20484;-87
2022/10/17 12:04:05;;;;;;;0.10;0.10;;;18.70;99.90;;;;;;5008901;28;20565;-87
2022/10/17 12:07:13;;;;;;;0.10;0.10;;;19.00;99.90;;;;;;5017393;28;20442;-87
2022/10/17 12:10:19;;;;;;;0.10;0.10;;;19.50;99.90;;;;;;5014047;28;20460;-87
2022/10/17 12:12:46;;;;;;;0.10;0.10;;;20.00;99.90;;;;;;4969759;28;20450;-88
2022/10/17 12:15:23;;;;;;;0.10;0.10;;;19.90;99.90;;;;;;5008262;28;20453;-88
2022/10/17 12:18:02;;;;;;;0.10;0.10;;;19.80;99.90;;;;;;5022285;28;21046;-89
2022/10/17 12:20:32;;;;;;;0.10;0.10;;;19.90;99.90;;;;;;5004731;28;20485;-90
2022/10/17 12:23:04;;;;;;;0.10;0.00;;;19.80;99.90;;;;;;5004013;28;20469;-89
2022/10/17 12:25:34;;;;;;;0.10;0.10;;;19.90;99.90;;;;;;5019310;28;20445;-88
2022/10/17 12:28:13;;;;;;;0.10;0.10;;;19.80;99.90;;;;;;5017531;28;20439;-87
2022/10/17 12:30:54;;;;;;;0.10;0.00;;;19.60;99.90;;;;;;4999073;28;20577;-88
2022/10/17 12:33:25;;;;;;;0.10;0.10;;;19.40;99.90;;;;;;5031554;28;20493;-90
2022/10/17 12:36:17;;;;;;;0.10;0.00;;;19.20;99.90;;;;;;5008015;28;20444;-89
2022/10/17 12:38:47;;;;;;;0.10;0.10;;;19.00;99.90;;;;;;5024382;28;20450;-90
2022/10/17 12:41:13;;;;;;;0.10;0.10;;;18.90;99.90;;;;;;5011781;28;20500;-90
2022/10/17 12:43:43;;;;;;;0.10;0.10;;;18.80;99.90;;;;;;5029305;28;20545;-91
2022/10/17 12:46:09;;;;;;;0.10;0.10;;;18.80;99.90;;;;;;5029093;28;20219;-90
2022/10/17 12:48:38;;;;;;;0.10;0.10;;;18.70;99.90;;;;;;5024990;28;20447;-91
2022/10/17 12:51:21;;;;;;;0.10;0.10;;;18.60;99.90;;;;;;5013987;28;20828;-89
2022/10/17 12:53:57;;;;;;;0.10;0.10;;;18.60;99.90;;;;;;5013593;28;20495;-91
2022/10/17 12:56:47;;;;;;;0.10;0.10;;;18.40;99.90;;;;;;5025891;28;20445;-91
2022/10/17 12:59:22;;;;;;;0.10;0.10;;;18.40;99.90;;;;;;5025036;28;20439;-91
2022/10/17 13:01:52;;;;;;;0.10;0.10;;;18.30;99.90;;;;;;5030453;28;20495;-87
2022/10/17 13:04:18;;;;;;;0.10;0.10;;;18.20;99.90;;;;;;5029038;28;20504;-90
2022/10/17 13:06:46;;;;;;;0.10;0.10;;;18.10;99.90;;;;;;5032271;28;20435;-88
2022/10/17 13:09:30;;;;;;;0.10;0.10;;;17.90;99.90;;;;;;5029156;28;20496;-89
2022/10/17 13:11:59;;;;;;;0.10;0.10;;;17.70;99.90;;;;;;5016779;28;20849;-88